createdAt,value
2022-10-01T00:01:17.432Z,61.00
2022-10-01T00:03:45.196Z,85.20
2022-10-01T00:06:17.246Z,61.40
2022-10-01T00:08:49.012Z,60.60
2022-10-01T00:11:23.506Z,60.90
2022-10-01T00:13:51.308Z,61.90
2022-10-01T00:16:23.834Z,62.40
2022-10-01T00:18:51.571Z,62.10
2022-10-01T00:21:32.219Z,61.90
2022-10-01T00:24:04.814Z,63.30
2022-10-01T00:26:37.192Z,63.10
2022-10-01T00:29:06.943Z,62.60
2022-10-01T00:31:34.754Z,63.10
2022-10-01T00:34:06.500Z,62.30
2022-10-01T00:36:34.571Z,63.20
2022-10-01T00:39:02.145Z,64.20
2022-10-01T00:41:31.353Z,63.30
2022-10-01T00:44:30.483Z,63.70
2022-10-01T00:47:02.891Z,62.70
2022-10-01T00:49:33.560Z,66.60
2022-10-01T00:52:05.991Z,62.70
2022-10-01T00:54:40.385Z,63.20
2022-10-01T00:57:07.933Z,63.20
2022-10-01T00:59:36.343Z,65.00
2022-10-01T01:02:03.662Z,63.70
2022-10-01T01:04:30.562Z,63.80
2022-10-01T01:07:00.047Z,65.90
2022-10-01T01:09:31.261Z,65.50
2022-10-01T01:12:12.059Z,65.00
2022-10-01T01:14:57.966Z,67.40
2022-10-01T01:17:49.385Z,67.00
2022-10-01T01:20:32.630Z,68.20
2022-10-01T01:23:18.955Z,67.50
2022-10-01T01:25:57.890Z,67.90
2022-10-01T01:28:32.667Z,69.00
2022-10-01T01:31:08.278Z,70.00
2022-10-01T01:33:38.979Z,71.20
2022-10-01T01:36:11.150Z,71.60
2022-10-01T01:38:46.333Z,74.10
2022-10-01T01:41:15.621Z,73.70
2022-10-01T01:43:45.828Z,74.40
2022-10-01T01:46:14.590Z,74.20
2022-10-01T01:48:47.618Z,74.80
2022-10-01T01:51:26.300Z,74.70
2022-10-01T01:53:54.393Z,74.10
2022-10-01T01:56:21.660Z,80.10
2022-10-01T01:58:49.208Z,82.10
2022-10-01T02:01:40.402Z,82.90
2022-10-01T02:04:23.617Z,84.90
2022-10-01T02:06:56.009Z,87.10
2022-10-01T02:09:51.470Z,91.70
2022-10-01T02:12:44.518Z,95.80
2022-10-01T02:15:41.868Z,97.60
2022-10-01T02:18:12.915Z,98.10
2022-10-01T02:20:46.401Z,98.90
2022-10-01T02:23:19.340Z,99.00
2022-10-01T02:25:56.227Z,98.90
2022-10-01T02:28:24.259Z,98.20
2022-10-01T02:30:54.540Z,98.00
2022-10-01T02:33:30.051Z,97.50
2022-10-01T02:36:00.125Z,97.00
2022-10-01T02:38:29.468Z,96.40
2022-10-01T02:41:02.348Z,94.70
2022-10-01T02:43:44.140Z,92.90
2022-10-01T02:46:21.897Z,93.10
2022-10-01T02:48:49.546Z,99.90
2022-10-01T02:51:31.136Z,93.70
2022-10-01T02:54:22.675Z,94.10
2022-10-01T02:57:08.793Z,94.80
2022-10-01T02:59:35.738Z,95.40
2022-10-01T03:02:03.024Z,95.10
2022-10-01T03:04:30.009Z,95.80
2022-10-01T03:07:01.560Z,96.50
2022-10-01T03:09:28.410Z,96.90
2022-10-01T03:11:55.249Z,96.80
2022-10-01T03:14:22.102Z,96.50
2022-10-01T03:16:48.940Z,96.70
2022-10-01T03:19:15.802Z,96.30
2022-10-01T03:21:42.847Z,95.70
2022-10-01T03:24:09.779Z,94.40
2022-10-01T03:26:37.030Z,93.70
2022-10-01T03:29:05.030Z,92.00
2022-10-01T03:31:33.146Z,88.60
2022-10-01T03:34:00.837Z,84.40
2022-10-01T03:36:28.043Z,80.30
2022-10-01T03:38:55.046Z,78.10
2022-10-01T03:41:22.394Z,76.20
2022-10-01T03:43:49.245Z,74.20
2022-10-01T03:46:16.351Z,74.40
2022-10-01T03:48:43.340Z,73.40
2022-10-01T03:51:10.213Z,74.60
2022-10-01T03:53:37.174Z,75.40
2022-10-01T03:56:05.002Z,75.30
2022-10-01T03:58:31.907Z,74.30
2022-10-01T04:01:00.593Z,74.20
2022-10-01T04:03:28.012Z,73.50
2022-10-01T04:05:54.962Z,72.60
2022-10-01T04:08:24.362Z,73.60
2022-10-01T04:10:51.990Z,74.80
2022-10-01T04:13:18.983Z,75.50
2022-10-01T04:15:46.139Z,76.50
2022-10-01T04:18:13.112Z,76.70
2022-10-01T04:20:39.983Z,75.30
2022-10-01T04:23:06.891Z,77.50
2022-10-01T04:25:34.056Z,77.10
2022-10-01T04:28:03.250Z,75.90
2022-10-01T04:30:34.697Z,76.60
2022-10-01T04:33:01.807Z,76.10
2022-10-01T04:35:29.455Z,77.00
2022-10-01T04:38:12.746Z,74.90
2022-10-01T04:40:39.671Z,75.00
2022-10-01T04:43:10.422Z,76.70
2022-10-01T04:45:38.149Z,74.90
2022-10-01T04:48:05.728Z,76.30
2022-10-01T04:50:33.058Z,75.70
2022-10-01T04:53:00.201Z,75.10
2022-10-01T04:55:27.138Z,75.10
2022-10-01T04:57:54.138Z,76.30
2022-10-01T05:00:24.566Z,76.20
2022-10-01T05:02:51.632Z,76.10
2022-10-01T05:05:20.588Z,77.60
2022-10-01T05:07:47.493Z,76.70
2022-10-01T05:10:17.746Z,76.40
2022-10-01T05:12:46.255Z,75.60
2022-10-01T05:15:14.212Z,75.90
2022-10-01T05:17:41.211Z,75.30
2022-10-01T05:20:10.141Z,75.30
2022-10-01T05:22:37.595Z,74.30
2022-10-01T05:25:05.151Z,74.10
2022-10-01T05:27:34.585Z,72.00
2022-10-01T05:30:01.992Z,71.90
2022-10-01T05:32:28.986Z,68.00
2022-10-01T05:34:55.879Z,67.50
2022-10-01T05:37:22.934Z,67.30
2022-10-01T05:39:50.087Z,65.20
2022-10-01T05:42:16.933Z,63.40
2022-10-01T05:44:46.347Z,65.00
2022-10-01T05:47:14.054Z,64.40
2022-10-01T05:49:42.958Z,64.30
2022-10-01T05:52:11.321Z,64.50
2022-10-01T05:54:38.474Z,63.20
2022-10-01T05:57:06.537Z,62.70
2022-10-01T05:59:33.651Z,61.20
2022-10-01T06:02:00.819Z,61.60
2022-10-01T06:04:27.920Z,61.10
2022-10-01T06:06:55.115Z,59.40
2022-10-01T06:09:22.030Z,60.30
2022-10-01T06:11:48.978Z,58.70
2022-10-01T06:14:16.399Z,57.90
2022-10-01T06:16:43.424Z,54.90
2022-10-01T06:19:10.561Z,55.10
2022-10-01T06:21:37.875Z,52.30
2022-10-01T06:24:05.275Z,51.10
2022-10-01T06:26:32.254Z,50.60
2022-10-01T06:28:59.147Z,50.70
2022-10-01T06:31:26.111Z,50.20
2022-10-01T06:33:53.111Z,47.40
2022-10-01T06:36:19.993Z,46.80
2022-10-01T06:38:49.949Z,45.60
2022-10-01T06:41:16.933Z,43.70
2022-10-01T06:43:43.837Z,41.60
2022-10-01T06:46:11.291Z,39.90
2022-10-01T06:48:38.360Z,39.70
2022-10-01T06:51:05.880Z,38.30
2022-10-01T06:53:32.852Z,39.20
2022-10-01T06:56:06.495Z,36.20
2022-10-01T06:58:33.625Z,36.50
2022-10-01T07:01:02.699Z,34.70
2022-10-01T07:03:31.144Z,34.60
2022-10-01T07:06:05.432Z,31.90
2022-10-01T07:08:33.349Z,30.50
2022-10-01T07:11:02.661Z,29.50
2022-10-01T07:13:29.704Z,27.60
2022-10-01T07:15:56.595Z,27.50
2022-10-01T07:18:23.682Z,45.50
2022-10-01T07:20:50.717Z,27.30
2022-10-01T07:23:17.700Z,28.70
2022-10-01T07:25:45.353Z,29.20
2022-10-01T07:28:18.046Z,30.20
2022-10-01T07:30:47.715Z,29.10
2022-10-01T07:33:18.768Z,29.60
2022-10-01T07:35:47.854Z,28.70
2022-10-01T07:38:15.052Z,30.50
2022-10-01T07:40:42.146Z,29.30
2022-10-01T07:43:09.261Z,30.90
2022-10-01T07:45:36.274Z,29.70
2022-10-01T07:48:04.251Z,28.90
2022-10-01T07:50:31.174Z,28.00
2022-10-01T07:52:59.315Z,27.60
2022-10-01T07:55:28.322Z,27.60
2022-10-01T07:57:57.024Z,26.30
2022-10-01T08:00:26.075Z,26.10
2022-10-01T08:02:56.145Z,25.70
2022-10-01T08:05:29.427Z,25.60
2022-10-01T08:08:04.825Z,26.10
2022-10-01T08:10:34.846Z,25.90
2022-10-01T08:13:08.164Z,27.10
2022-10-01T08:15:35.870Z,26.60
2022-10-01T08:18:04.501Z,26.20
2022-10-01T08:20:32.110Z,28.60
2022-10-01T08:23:07.217Z,26.40
2022-10-01T08:25:34.819Z,25.30
2022-10-01T08:28:01.975Z,23.60
2022-10-01T08:30:29.825Z,22.80
2022-10-01T08:33:01.251Z,23.10
2022-10-01T08:35:28.947Z,23.40
2022-10-01T08:38:00.682Z,22.50
2022-10-01T08:40:27.812Z,23.20
2022-10-01T08:43:00.078Z,22.00
2022-10-01T08:45:34.811Z,21.30
2022-10-01T08:48:36.731Z,22.40
2022-10-01T08:51:33.233Z,22.10
2022-10-01T08:54:09.153Z,36.90
2022-10-01T08:56:41.218Z,21.20
2022-10-01T08:59:32.702Z,21.40
2022-10-01T09:01:59.695Z,20.30
2022-10-01T09:04:28.133Z,20.00
2022-10-01T09:07:47.232Z,20.00
2022-10-01T09:10:42.175Z,19.10
2022-10-01T09:13:39.459Z,20.60
2022-10-01T09:16:28.590Z,19.20
2022-10-01T09:19:02.763Z,18.90
2022-10-01T09:21:38.903Z,18.30
2022-10-01T09:24:15.670Z,19.30
2022-10-01T09:26:50.728Z,17.80
2022-10-01T09:29:39.629Z,18.40
2022-10-01T09:32:07.080Z,16.90
2022-10-01T09:34:40.572Z,17.20
2022-10-01T09:37:44.608Z,16.40
2022-10-01T09:40:30.459Z,15.60
2022-10-01T09:42:57.385Z,15.30
2022-10-01T09:45:25.101Z,15.80
2022-10-01T09:47:55.837Z,13.70
2022-10-01T09:50:34.793Z,12.80
2022-10-01T09:53:02.523Z,12.60
2022-10-01T09:55:42.679Z,13.40
2022-10-01T09:58:17.239Z,12.60
2022-10-01T10:00:44.863Z,12.70
2022-10-01T10:03:23.685Z,12.50
2022-10-01T10:05:50.897Z,13.50
2022-10-01T10:08:45.543Z,14.10
2022-10-01T10:11:25.610Z,14.20
2022-10-01T10:14:04.628Z,13.80
2022-10-01T10:16:37.118Z,14.40
2022-10-01T10:19:25.886Z,13.50
2022-10-01T10:22:00.652Z,14.90
2022-10-01T10:24:32.977Z,15.40
2022-10-01T10:27:02.791Z,15.40
2022-10-01T10:29:35.994Z,15.90
2022-10-01T10:32:11.250Z,15.80
2022-10-01T10:34:42.305Z,14.50
2022-10-01T10:37:19.168Z,14.50
2022-10-01T10:39:53.288Z,14.00
2022-10-01T10:42:22.651Z,13.70
2022-10-01T10:44:51.647Z,16.10
2022-10-01T10:47:20.885Z,16.20
2022-10-01T10:49:54.343Z,16.60
2022-10-01T10:52:33.335Z,17.40
2022-10-01T10:55:02.196Z,18.60
2022-10-01T10:57:34.410Z,19.70
2022-10-01T11:00:06.427Z,19.00
2022-10-01T11:02:33.763Z,19.30
2022-10-01T11:05:16.851Z,21.00
2022-10-01T11:07:45.895Z,20.90
2022-10-01T11:10:41.950Z,21.30
2022-10-01T11:13:27.066Z,20.00
2022-10-01T11:16:02.988Z,20.20
2022-10-01T11:19:12.459Z,19.40
2022-10-01T11:21:54.141Z,34.90
2022-10-01T11:24:39.513Z,19.40
2022-10-01T11:27:29.798Z,19.20
2022-10-01T11:29:56.622Z,19.10
2022-10-01T11:33:05.992Z,17.40
2022-10-01T11:35:51.459Z,17.30
2022-10-01T11:38:24.341Z,16.80
2022-10-01T11:41:25.156Z,16.50
2022-10-01T11:43:59.791Z,17.10
2022-10-01T11:46:42.134Z,16.90
2022-10-01T11:49:28.451Z,17.00
2022-10-01T11:52:16.562Z,16.20
2022-10-01T11:55:33.971Z,17.40
2022-10-01T11:58:51.196Z,16.50
2022-10-01T12:01:24.445Z,17.00
2022-10-01T12:03:54.404Z,17.30
2022-10-01T12:06:33.023Z,18.40
2022-10-01T12:09:19.638Z,18.00
2022-10-01T12:12:01.295Z,19.80
2022-10-01T12:14:36.997Z,20.10
2022-10-01T12:17:34.199Z,26.70
2022-10-01T12:20:04.518Z,36.90
2022-10-01T12:22:35.630Z,21.30
2022-10-01T12:25:02.486Z,20.10
2022-10-01T12:27:55.369Z,19.50
2022-10-01T12:30:25.074Z,17.50
2022-10-01T12:33:07.776Z,17.00
2022-10-01T12:35:49.475Z,17.30
2022-10-01T12:38:34.699Z,17.00
2022-10-01T12:41:30.045Z,17.00
2022-10-01T12:44:28.110Z,15.70
2022-10-01T12:47:17.906Z,16.00
2022-10-01T12:49:54.434Z,16.00
2022-10-01T12:52:21.310Z,15.50
2022-10-01T12:55:14.273Z,14.10
2022-10-01T12:57:52.906Z,14.40
2022-10-01T13:00:25.741Z,15.30
2022-10-01T13:03:17.955Z,16.10
2022-10-01T13:05:44.819Z,15.10
2022-10-01T13:08:17.945Z,15.90
2022-10-01T13:11:09.618Z,15.80
2022-10-01T13:13:38.600Z,14.80
2022-10-01T13:16:38.821Z,13.30
2022-10-01T13:19:17.006Z,13.10
2022-10-01T13:22:09.089Z,13.90
2022-10-01T13:24:55.457Z,12.90
2022-10-01T13:27:38.447Z,12.20
2022-10-01T13:30:26.487Z,11.80
2022-10-01T13:32:55.080Z,10.40
2022-10-01T13:35:35.731Z,10.00
2022-10-01T13:38:29.088Z,11.00
2022-10-01T13:41:15.510Z,10.60
2022-10-01T13:43:59.174Z,10.20
2022-10-01T13:46:31.180Z,11.70
2022-10-01T13:49:22.975Z,11.60
2022-10-01T13:51:52.646Z,11.10
2022-10-01T13:54:47.502Z,11.20
2022-10-01T13:57:31.697Z,11.90
2022-10-01T14:00:17.130Z,10.70
2022-10-01T14:02:59.014Z,10.40
2022-10-01T14:05:38.285Z,9.80
2022-10-01T14:08:14.654Z,9.90
2022-10-01T14:11:15.356Z,9.90
2022-10-01T14:14:09.498Z,9.30
2022-10-01T14:16:40.962Z,8.50
2022-10-01T14:19:09.295Z,8.50
2022-10-01T14:21:45.105Z,8.70
2022-10-01T14:24:19.474Z,10.80
2022-10-01T14:27:24.820Z,8.80
2022-10-01T14:30:10.525Z,9.10
2022-10-01T14:33:01.912Z,7.80
2022-10-01T14:35:51.983Z,8.70
2022-10-01T14:38:21.143Z,11.20
2022-10-01T14:40:50.123Z,10.00
2022-10-01T14:43:25.777Z,11.10
2022-10-01T14:46:05.154Z,9.70
2022-10-01T14:48:34.762Z,9.50
2022-10-01T14:51:07.529Z,8.80
2022-10-01T14:53:37.154Z,9.00
2022-10-01T14:56:11.425Z,8.60
2022-10-01T14:58:42.032Z,9.20
2022-10-01T15:01:21.535Z,10.00
2022-10-01T15:03:49.896Z,9.50
2022-10-01T15:06:23.153Z,10.60
2022-10-01T15:08:52.990Z,8.60
2022-10-01T15:11:26.044Z,9.60
2022-10-01T15:14:06.407Z,9.40
2022-10-01T15:16:35.539Z,10.40
2022-10-01T15:19:28.979Z,10.90
2022-10-01T15:21:58.712Z,10.50
2022-10-01T15:24:40.322Z,11.30
2022-10-01T15:27:10.050Z,11.50
2022-10-01T15:29:42.158Z,11.70
2022-10-01T15:32:14.676Z,11.80
2022-10-01T15:34:47.323Z,11.20
2022-10-01T15:37:23.522Z,11.40
2022-10-01T15:39:54.158Z,12.10
2022-10-01T15:42:26.783Z,12.20
2022-10-01T15:45:25.216Z,11.80
2022-10-01T15:47:56.859Z,12.40
2022-10-01T15:50:34.505Z,12.00
2022-10-01T15:53:10.487Z,12.90
2022-10-01T15:55:45.547Z,12.60
2022-10-01T15:58:31.711Z,13.70
2022-10-01T16:01:33.985Z,14.40
2022-10-01T16:04:12.388Z,15.30
2022-10-01T16:06:43.538Z,17.50
2022-10-01T16:09:13.290Z,17.10
2022-10-01T16:11:59.672Z,19.40
2022-10-01T16:14:32.149Z,20.10
2022-10-01T16:17:17.196Z,21.80
2022-10-01T16:19:45.713Z,23.30
2022-10-01T16:22:21.694Z,25.20
2022-10-01T16:24:48.707Z,25.80
2022-10-01T16:27:37.243Z,25.10
2022-10-01T16:30:07.287Z,26.30
2022-10-01T16:32:34.698Z,26.50
2022-10-01T16:35:24.936Z,27.70
2022-10-01T16:37:55.138Z,27.00
2022-10-01T16:40:30.801Z,34.70
2022-10-01T16:43:01.090Z,32.10
2022-10-01T16:45:34.997Z,36.00
2022-10-01T16:48:05.808Z,38.10
2022-10-01T16:50:32.648Z,40.60
2022-10-01T16:53:01.341Z,42.60
2022-10-01T16:55:35.861Z,48.30
2022-10-01T16:58:04.003Z,51.30
2022-10-01T17:00:31.569Z,53.10
2022-10-01T17:02:59.817Z,54.50
2022-10-01T17:05:38.643Z,64.10
2022-10-01T17:08:11.333Z,69.00
2022-10-01T17:10:53.719Z,73.50
2022-10-01T17:13:20.603Z,90.80
2022-10-01T17:15:48.477Z,95.90
2022-10-01T17:18:15.399Z,96.10
2022-10-01T17:20:42.326Z,97.50
2022-10-01T17:23:11.545Z,99.90
2022-10-01T17:25:39.619Z,99.90
2022-10-01T17:28:08.724Z,99.90
2022-10-01T17:30:38.837Z,99.90
2022-10-01T17:33:05.684Z,99.90
2022-10-01T17:35:32.579Z,99.90
2022-10-01T17:37:59.535Z,99.90
2022-10-01T17:40:26.490Z,99.90
2022-10-01T17:42:53.479Z,99.90
2022-10-01T17:45:20.508Z,99.90
2022-10-01T17:47:48.995Z,99.90
2022-10-01T17:50:16.348Z,99.90
2022-10-01T17:52:43.954Z,99.90
2022-10-01T17:55:12.287Z,99.90
2022-10-01T17:57:39.454Z,99.90
2022-10-01T18:00:07.154Z,99.90
2022-10-01T18:02:42.059Z,99.90
2022-10-01T18:05:12.521Z,99.90
2022-10-01T18:07:40.587Z,99.90
2022-10-01T18:10:09.749Z,99.90
2022-10-01T18:12:36.582Z,99.90
2022-10-01T18:15:03.643Z,99.90
2022-10-01T18:17:33.007Z,99.90
2022-10-01T18:20:00.130Z,99.90
2022-10-01T18:22:28.906Z,99.90
2022-10-01T18:24:56.232Z,99.90
2022-10-01T18:27:23.647Z,99.90
2022-10-01T18:29:50.958Z,99.90
2022-10-01T18:32:27.926Z,99.90
2022-10-01T18:34:57.913Z,99.90
2022-10-01T18:37:39.038Z,99.90
2022-10-01T18:40:20.701Z,99.90
2022-10-01T18:43:04.496Z,99.90
2022-10-01T18:45:37.509Z,99.90
2022-10-01T18:48:10.914Z,99.90
2022-10-01T18:50:47.327Z,99.90
2022-10-01T18:53:19.010Z,99.90
2022-10-01T18:56:18.983Z,99.90
2022-10-01T18:59:04.895Z,99.90
2022-10-01T19:01:39.066Z,99.90
2022-10-01T19:04:37.599Z,99.90
2022-10-01T19:07:53.740Z,99.90
2022-10-01T19:10:38.059Z,99.90
2022-10-01T19:13:27.169Z,99.90
2022-10-01T19:15:57.401Z,99.90
2022-10-01T19:18:24.596Z,99.90
2022-10-01T19:21:15.329Z,99.90
2022-10-01T19:23:57.575Z,99.90
2022-10-01T19:26:33.713Z,99.90
2022-10-01T19:29:06.792Z,99.90
2022-10-01T19:31:45.960Z,99.90
2022-10-01T19:34:22.588Z,99.90
2022-10-01T19:36:56.517Z,99.90
2022-10-01T19:39:27.333Z,99.90
2022-10-01T19:42:01.553Z,98.20
2022-10-01T19:44:35.536Z,91.60
2022-10-01T19:47:27.743Z,66.60
2022-10-01T19:49:59.743Z,56.90
2022-10-01T19:52:32.579Z,42.40
2022-10-01T19:55:01.013Z,35.00
2022-10-01T19:57:30.682Z,33.80
2022-10-01T20:00:07.758Z,33.70
2022-10-01T20:02:45.958Z,34.70
2022-10-01T20:05:32.857Z,30.30
2022-10-01T20:08:02.645Z,28.90
2022-10-01T20:10:36.659Z,29.40
2022-10-01T20:13:31.287Z,31.60
2022-10-01T20:16:22.483Z,26.80
2022-10-01T20:19:17.954Z,20.80
2022-10-01T20:22:00.574Z,20.10
2022-10-01T20:24:56.078Z,20.70
2022-10-01T20:27:52.578Z,15.40
2022-10-01T20:30:21.764Z,15.10
2022-10-01T20:33:11.771Z,15.60
2022-10-01T20:36:03.866Z,17.50
2022-10-01T20:38:40.440Z,19.10
2022-10-01T20:41:15.999Z,17.60
2022-10-01T20:43:51.474Z,13.60
2022-10-01T20:46:33.318Z,15.80
2022-10-01T20:49:27.992Z,14.70
2022-10-01T20:52:01.050Z,13.20
2022-10-01T20:54:44.156Z,13.00
2022-10-01T20:57:35.935Z,12.10
2022-10-01T21:00:18.915Z,14.30
2022-10-01T21:03:17.951Z,14.90
2022-10-01T21:05:49.187Z,13.30
2022-10-01T21:08:32.585Z,15.90
2022-10-01T21:11:03.775Z,17.10
2022-10-01T21:13:30.592Z,18.00
2022-10-01T21:16:15.684Z,17.00
2022-10-01T21:18:50.078Z,16.60
2022-10-01T21:21:35.520Z,17.10
2022-10-01T21:24:21.093Z,16.30
2022-10-01T21:27:15.287Z,19.10
2022-10-01T21:30:12.906Z,17.50
2022-10-01T21:33:04.846Z,17.60
2022-10-01T21:35:56.448Z,15.90
2022-10-01T21:38:40.082Z,14.80
2022-10-01T21:41:20.562Z,14.40
2022-10-01T21:44:11.255Z,15.10
2022-10-01T21:46:55.246Z,16.00
2022-10-01T21:49:28.158Z,18.10
2022-10-01T21:52:28.559Z,20.00
2022-10-01T21:55:01.009Z,17.70
2022-10-01T21:57:33.675Z,18.80
2022-10-01T22:00:19.506Z,19.40
2022-10-01T22:02:51.618Z,18.50
2022-10-01T22:05:29.515Z,20.30
2022-10-01T22:08:25.714Z,19.80
2022-10-01T22:10:57.907Z,21.00
2022-10-01T22:13:30.434Z,24.10
2022-10-01T22:16:02.519Z,23.70
2022-10-01T22:18:39.862Z,26.10
2022-10-01T22:21:22.922Z,29.20
2022-10-01T22:24:03.868Z,38.10
2022-10-01T22:26:34.319Z,22.70
2022-10-01T22:29:03.366Z,22.40
2022-10-01T22:31:35.015Z,18.60
2022-10-01T22:34:12.984Z,17.80
2022-10-01T22:36:47.756Z,17.40
2022-10-01T22:39:27.084Z,14.60
2022-10-01T22:42:01.557Z,15.80
2022-10-01T22:44:29.345Z,16.10
2022-10-01T22:47:26.943Z,16.40
2022-10-01T22:50:28.998Z,15.90
2022-10-01T22:53:26.662Z,17.90
2022-10-01T22:55:57.999Z,19.80
2022-10-01T22:58:30.816Z,19.50
2022-10-01T23:01:34.836Z,21.70
2022-10-01T23:04:22.810Z,21.40
2022-10-01T23:07:04.859Z,17.30
2022-10-01T23:09:49.610Z,17.90
2022-10-01T23:12:30.855Z,19.90
2022-10-01T23:14:57.743Z,21.80
2022-10-01T23:17:50.886Z,12.10
2022-10-01T23:20:55.810Z,11.70
2022-10-01T23:23:33.172Z,11.90
2022-10-01T23:26:32.586Z,12.40
2022-10-01T23:29:22.566Z,10.80
2022-10-01T23:31:59.256Z,9.80
2022-10-01T23:34:56.915Z,11.00
2022-10-01T23:37:32.418Z,9.00
2022-10-01T23:40:09.797Z,7.90
2022-10-01T23:42:57.955Z,8.00
2022-10-01T23:45:30.949Z,6.60
2022-10-01T23:48:23.703Z,5.60
2022-10-01T23:51:02.326Z,4.90
2022-10-01T23:54:00.342Z,4.10
2022-10-01T23:56:51.206Z,4.60
2022-10-01T23:59:39.035Z,2.80
